Historique des mesures à Cassis (13260), France
Quotidien Résumé Janvier 11, 2020 Unités:  Métrique    US   Métrique/US
Quotidien Hebdomadaire Mensuel Annuel
  Maximum: Minimum: Moyenne:
Température: 16.1 °C 11.6 °C 13.6 °C
Point de rosée: 6.4 °C 3.5 °C 4.8 °C
Humidité: 65% 43% 56%
Vitesse du vent: 60.5km/h 18km/h 35.2km/h
Rafales: 75.2km/h - -
Vent- - NW
Pression: 1014.6 hPa 1008.4 hPa -
Précipitations: 0.0 mm    
Historical Graphs
 
 
Mesures pour : Janvier 11, 2020
Heure Temperature Point de rosée Pression Vent Vitesse du vent Rafales Humidité Pluie (par heure)
00:12 14.3 °C 5.9 °C 1014.6 hPa NW 20.9 km/h 30.6 km/h 57% 0.0 mm
01:12 13.6 °C 6.4 °C 1014.0 hPa NW 33.1 km/h 48.2 km/h 62% 0.0 mm
02:12 13.4 °C 6 °C 1013.7 hPa NW 43.9 km/h 55.1 km/h 61% 0.0 mm
03:12 12.9 °C 5.8 °C 1013.1 hPa WNW 21.2 km/h 42.1 km/h 62% 0.0 mm
04:12 12.4 °C 6 °C 1012.5 hPa WNW 18 km/h 43.9 km/h 65% 0.0 mm
05:12 12.2 °C 5.3 °C 1011.6 hPa WNW 41.4 km/h 55.1 km/h 63% 0.0 mm
06:12 11.9 °C 4.8 °C 1010.7 hPa NW 40.7 km/h 56.2 km/h 62% 0.0 mm
07:12 11.6 °C 5 °C 1011.0 hPa WNW 27.4 km/h 60.1 km/h 64% 0.0 mm
08:12 11.6 °C 4.8 °C 1010.5 hPa WNW 60.5 km/h 61.6 km/h 63% 0.0 mm
09:11 11.9 °C 4.6 °C 1010.6 hPa NW 33.8 km/h 67.7 km/h 61% 0.0 mm
10:12 12.6 °C 4.3 °C 1011.2 hPa NW 38.9 km/h 64.8 km/h 57% 0.0 mm
11:12 13.6 °C 4.2 °C 1011.1 hPa WNW 31.7 km/h 42.5 km/h 53% 0.0 mm
12:12 14.6 °C 4.3 °C 1010.7 hPa WNW 34.9 km/h 48.2 km/h 50% 0.0 mm
13:11 15.4 °C 4.4 °C 1010.1 hPa NW 43.2 km/h 55.8 km/h 48% 0.0 mm
14:12 15.9 °C 3.9 °C 1009.8 hPa NW 38.9 km/h 52.2 km/h 45% 0.0 mm
15:12 16.1 °C 3.8 °C 1008.8 hPa NW 44.3 km/h 67 km/h 44% 0.0 mm
16:12 16.1 °C 3.5 °C 1008.6 hPa NW 38.5 km/h 72.4 km/h 43% 0.0 mm
17:11 16.1 °C 3.5 °C 1008.7 hPa NNW 44.3 km/h 60.1 km/h 43% 0.0 mm
18:12 15.8 °C 3.5 °C 1008.4 hPa NW 46.4 km/h 58.7 km/h 44% 0.0 mm
19:11 14.4 °C 4.7 °C 1009.1 hPa WNW 18 km/h 75.2 km/h 52% 0.0 mm
20:12 13.4 °C 4.8 °C 1009.3 hPa WNW 32.4 km/h 66.6 km/h 56% 0.0 mm
21:11 12.8 °C 5 °C 1010.1 hPa WNW 25.9 km/h 41 km/h 59% 0.0 mm
22:12 12.4 °C 4.9 °C 1009.7 hPa NW 29.5 km/h 51.1 km/h 60% 0.0 mm
23:12 11.9 °C 5.1 °C 1009.1 hPa NW 37.1 km/h 68 km/h 63% 0.0 mm
Observations météo à CASSIS
WU-History script by Weather Underground - 2 mb